createdAt,value
2018-12-05T00:01:13.833Z,2.40
2018-12-05T00:03:42.068Z,2.40
2018-12-05T00:06:10.475Z,2.30
2018-12-05T00:08:38.734Z,2.30
2018-12-05T00:11:06.998Z,2.30
2018-12-05T00:13:35.225Z,2.20
2018-12-05T00:16:03.554Z,2.20
2018-12-05T00:18:31.902Z,2.20
2018-12-05T00:21:00.202Z,2.10
2018-12-05T00:23:28.461Z,2.20
2018-12-05T00:25:56.779Z,2.20
2018-12-05T00:28:25.045Z,2.20
2018-12-05T00:30:53.325Z,2.20
2018-12-05T00:33:21.581Z,2.30
2018-12-05T00:35:49.877Z,2.30
2018-12-05T00:38:18.126Z,2.30
2018-12-05T00:40:46.433Z,2.30
2018-12-05T00:43:14.681Z,2.20
2018-12-05T00:45:42.998Z,2.30
2018-12-05T00:48:11.230Z,2.30
2018-12-05T00:50:39.557Z,2.30
2018-12-05T00:53:07.790Z,2.30
2018-12-05T00:55:36.109Z,2.20
2018-12-05T00:58:04.548Z,2.20
2018-12-05T01:00:32.890Z,2.20
2018-12-05T01:03:01.197Z,2.20
2018-12-05T01:05:29.501Z,2.20
2018-12-05T01:07:57.750Z,2.10
2018-12-05T01:10:25.978Z,2.00
2018-12-05T01:12:54.262Z,1.90
2018-12-05T01:15:22.528Z,1.90
2018-12-05T01:17:50.776Z,1.90
2018-12-05T01:20:19.034Z,1.80
2018-12-05T01:22:47.294Z,1.80
2018-12-05T01:25:15.529Z,1.80
2018-12-05T01:27:43.828Z,1.80
2018-12-05T01:30:12.175Z,1.80
2018-12-05T01:32:40.476Z,1.80
2018-12-05T01:35:08.822Z,1.80
2018-12-05T01:37:37.101Z,1.80
2018-12-05T01:40:05.777Z,1.70
2018-12-05T01:42:34.037Z,1.70
2018-12-05T01:45:02.289Z,1.70
2018-12-05T01:47:30.649Z,1.70
2018-12-05T01:49:58.953Z,1.70
2018-12-05T01:52:27.291Z,1.60
2018-12-05T01:54:55.597Z,1.60
2018-12-05T01:57:23.862Z,1.60
2018-12-05T01:59:52.132Z,1.60
2018-12-05T02:02:20.557Z,1.60
2018-12-05T02:04:48.864Z,1.60
2018-12-05T02:07:17.121Z,1.50
2018-12-05T02:09:47.138Z,1.50
2018-12-05T02:12:15.680Z,1.40
2018-12-05T02:14:43.955Z,1.40
2018-12-05T02:17:12.257Z,1.30
2018-12-05T02:19:40.644Z,1.30
2018-12-05T02:22:08.923Z,1.20
2018-12-05T02:24:37.405Z,1.30
2018-12-05T02:27:05.815Z,1.30
2018-12-05T02:29:39.536Z,1.30
2018-12-05T02:32:07.818Z,1.30
2018-12-05T02:34:36.098Z,1.20
2018-12-05T02:37:04.516Z,1.20
2018-12-05T02:39:32.795Z,1.10
2018-12-05T02:42:01.063Z,1.10
2018-12-05T02:44:29.373Z,1.10
2018-12-05T02:46:57.734Z,1.10
2018-12-05T02:49:26.115Z,1.00
2018-12-05T02:51:54.451Z,1.00
2018-12-05T02:54:22.907Z,0.90
2018-12-05T02:56:51.334Z,0.90
2018-12-05T02:59:19.605Z,0.90
2018-12-05T03:01:47.865Z,0.90
2018-12-05T03:04:16.205Z,0.80
2018-12-05T03:06:45.174Z,0.90
2018-12-05T03:09:13.417Z,0.90
2018-12-05T03:11:41.770Z,0.90
2018-12-05T03:14:10.094Z,0.80
2018-12-05T03:16:38.364Z,0.90
2018-12-05T03:19:06.687Z,0.80
2018-12-05T03:21:34.946Z,0.70
2018-12-05T03:24:03.235Z,0.50
2018-12-05T03:26:31.574Z,0.50
2018-12-05T03:28:59.810Z,0.40
2018-12-05T03:31:28.083Z,0.20
2018-12-05T03:33:56.325Z,0.20
2018-12-05T03:36:24.594Z,0.10
2018-12-05T03:38:52.967Z,0.10
2018-12-05T03:41:21.296Z,0.00
2018-12-05T03:43:49.638Z,-0.10
2018-12-05T03:46:17.898Z,-0.20
2018-12-05T03:48:46.128Z,-0.20
2018-12-05T03:51:14.525Z,-0.30
2018-12-05T03:53:42.807Z,-0.30
2018-12-05T03:56:11.114Z,-0.30
2018-12-05T03:58:39.449Z,-0.30
2018-12-05T04:01:07.795Z,-0.30
2018-12-05T04:03:36.051Z,-0.30
2018-12-05T04:06:04.468Z,-0.40
2018-12-05T04:08:32.739Z,-0.50
2018-12-05T04:11:00.992Z,-0.50
2018-12-05T04:13:29.209Z,-0.60
2018-12-05T04:15:57.544Z,-0.60
2018-12-05T04:18:25.849Z,-0.60
2018-12-05T04:20:54.053Z,-0.60
2018-12-05T04:23:22.316Z,-0.70
2018-12-05T04:25:50.652Z,-0.70
2018-12-05T04:28:18.861Z,-0.60
2018-12-05T04:30:47.849Z,-0.60
2018-12-05T04:33:16.190Z,-0.70
2018-12-05T04:35:44.438Z,-0.70
2018-12-05T04:38:12.686Z,-0.70
2018-12-05T04:40:40.947Z,-0.80
2018-12-05T04:43:09.186Z,-0.80
2018-12-05T04:45:37.411Z,-0.80
2018-12-05T04:48:06.402Z,-0.90
2018-12-05T04:50:34.646Z,-0.90
2018-12-05T04:53:03.098Z,-0.80
2018-12-05T04:55:31.683Z,-0.80
2018-12-05T04:58:00.011Z,-0.80
2018-12-05T05:00:28.244Z,-0.80
2018-12-05T05:02:56.608Z,-0.80
2018-12-05T05:05:24.932Z,-0.80
2018-12-05T05:07:53.152Z,-0.80
2018-12-05T05:10:21.363Z,-0.80
2018-12-05T05:12:49.599Z,-0.80
2018-12-05T05:15:17.898Z,-0.80
2018-12-05T05:17:46.115Z,-0.70
2018-12-05T05:20:14.364Z,-0.70
2018-12-05T05:22:42.629Z,-0.80
2018-12-05T05:25:11.078Z,-0.80
2018-12-05T05:27:45.681Z,-0.70
2018-12-05T05:30:09.723Z,-0.80
2018-12-05T05:32:37.946Z,-0.80
2018-12-05T05:35:06.364Z,-0.70
2018-12-05T05:37:34.574Z,-0.80
2018-12-05T05:40:02.807Z,-0.90
2018-12-05T05:42:31.015Z,-0.90
2018-12-05T05:44:59.258Z,-0.90
2018-12-05T05:47:28.492Z,-1.00
2018-12-05T05:49:56.751Z,-0.90
2018-12-05T05:53:27.582Z,-0.90
2018-12-05T05:55:56.009Z,-0.90
2018-12-05T05:58:24.237Z,-0.80
2018-12-05T06:00:52.551Z,-0.80
2018-12-05T06:03:20.840Z,-0.80
2018-12-05T06:05:49.227Z,-0.80
2018-12-05T06:08:17.438Z,-0.90
2018-12-05T06:10:45.664Z,-1.00
2018-12-05T06:13:14.094Z,-1.00
2018-12-05T06:15:42.408Z,-1.10
2018-12-05T06:18:10.625Z,-1.10
2018-12-05T06:20:38.860Z,-1.20
2018-12-05T06:23:07.134Z,-1.30
2018-12-05T06:25:35.375Z,-1.20
2018-12-05T06:28:03.689Z,-1.20
2018-12-05T06:30:31.937Z,-1.20
2018-12-05T06:33:00.199Z,-1.10
2018-12-05T06:35:28.435Z,-1.10
2018-12-05T06:37:56.651Z,-1.10
2018-12-05T06:40:24.961Z,-1.10
2018-12-05T06:42:53.209Z,-1.10
2018-12-05T06:45:21.627Z,-1.00
2018-12-05T06:47:50.077Z,-1.00
2018-12-05T06:50:18.481Z,-1.00
2018-12-05T06:52:46.834Z,-1.00
2018-12-05T06:55:15.100Z,-1.00
2018-12-05T06:57:43.331Z,-1.00
2018-12-05T07:00:11.644Z,-0.90
2018-12-05T07:02:39.898Z,-1.00
2018-12-05T07:05:08.319Z,-1.00
2018-12-05T07:07:36.663Z,-0.90
2018-12-05T07:10:05.433Z,-0.90
2018-12-05T07:12:33.692Z,-0.90
2018-12-05T07:15:02.026Z,-0.90
2018-12-05T07:17:30.270Z,-0.80
2018-12-05T07:19:58.483Z,-0.80
2018-12-05T07:22:26.882Z,-0.80
2018-12-05T07:24:55.099Z,-0.80
2018-12-05T07:27:23.335Z,-0.80
2018-12-05T07:29:51.579Z,-0.80
2018-12-05T07:32:19.844Z,-0.70
2018-12-05T07:34:48.055Z,-0.70
2018-12-05T07:37:16.285Z,-0.60
2018-12-05T07:39:44.507Z,-0.60
2018-12-05T07:42:12.756Z,-0.50
2018-12-05T07:44:40.999Z,-0.40
2018-12-05T07:47:09.222Z,-0.30
2018-12-05T07:49:37.483Z,-0.20
2018-12-05T07:52:05.714Z,-0.10
2018-12-05T07:54:33.939Z,0.00
2018-12-05T07:57:02.224Z,0.00
2018-12-05T07:59:30.452Z,0.10
2018-12-05T08:01:58.764Z,0.10
2018-12-05T08:04:27.057Z,0.10
2018-12-05T08:06:55.265Z,0.20
2018-12-05T08:09:23.485Z,0.30
2018-12-05T08:11:52.363Z,0.40
2018-12-05T08:14:20.607Z,0.40
2018-12-05T08:16:48.810Z,0.50
2018-12-05T08:19:17.067Z,0.60
2018-12-05T08:21:45.336Z,0.70
2018-12-05T08:24:13.558Z,0.80
2018-12-05T08:26:41.763Z,0.90
2018-12-05T08:29:10.066Z,1.00
2018-12-05T08:31:38.269Z,1.10
2018-12-05T08:34:06.580Z,1.20
2018-12-05T08:36:34.786Z,1.30
2018-12-05T08:39:04.193Z,1.40
2018-12-05T08:41:32.405Z,1.40
2018-12-05T08:44:00.759Z,1.50
2018-12-05T08:46:29.173Z,1.60
2018-12-05T08:48:57.456Z,1.60
2018-12-05T08:51:25.658Z,1.70
2018-12-05T08:53:54.014Z,1.80
2018-12-05T08:56:22.278Z,1.90
2018-12-05T08:58:50.561Z,1.90
2018-12-05T09:01:18.961Z,2.00
2018-12-05T09:03:47.199Z,2.00
2018-12-05T09:06:15.429Z,2.10
2018-12-05T09:08:43.634Z,2.20
2018-12-05T09:11:12.025Z,2.30
2018-12-05T09:13:40.234Z,2.40
2018-12-05T09:16:08.674Z,2.50
2018-12-05T09:18:36.883Z,2.50
2018-12-05T09:21:05.275Z,2.60
2018-12-05T09:23:33.489Z,2.80
2018-12-05T09:26:01.743Z,2.80
2018-12-05T09:28:29.949Z,2.90
2018-12-05T09:30:58.176Z,3.00
2018-12-05T09:33:26.543Z,3.10
2018-12-05T09:35:54.797Z,3.20
2018-12-05T09:38:23.030Z,3.20
2018-12-05T09:40:51.320Z,3.40
2018-12-05T09:43:19.659Z,3.50
2018-12-05T09:45:47.865Z,3.50
2018-12-05T09:48:16.099Z,3.70
2018-12-05T09:50:44.371Z,3.70
2018-12-05T09:53:12.562Z,3.90
2018-12-05T09:55:40.875Z,3.90
2018-12-05T09:58:09.068Z,3.90
2018-12-05T10:00:37.332Z,4.00
2018-12-05T10:03:05.598Z,4.10
2018-12-05T10:05:33.888Z,4.10
2018-12-05T10:08:02.165Z,4.20
2018-12-05T10:10:30.384Z,4.30
2018-12-05T10:12:58.602Z,4.30
2018-12-05T10:15:26.883Z,4.40
2018-12-05T10:17:55.202Z,4.50
2018-12-05T10:20:23.441Z,4.60
2018-12-05T10:22:51.650Z,4.70
2018-12-05T10:25:19.938Z,4.70
2018-12-05T10:27:48.164Z,4.80
2018-12-05T10:30:16.375Z,4.90
2018-12-05T10:32:44.594Z,5.00
2018-12-05T10:35:12.946Z,5.10
2018-12-05T10:37:41.251Z,5.20
2018-12-05T10:40:09.655Z,5.30
2018-12-05T10:42:37.941Z,5.40
2018-12-05T10:45:06.295Z,5.50
2018-12-05T10:47:34.537Z,5.60
2018-12-05T10:50:02.938Z,5.70
2018-12-05T10:52:31.259Z,5.80
2018-12-05T10:54:59.488Z,5.90
2018-12-05T10:57:27.772Z,5.90
2018-12-05T10:59:55.995Z,6.00
2018-12-05T11:02:29.662Z,6.00
2018-12-05T11:05:03.348Z,6.10
2018-12-05T11:07:36.998Z,6.20
2018-12-05T11:10:10.940Z,6.30
2018-12-05T11:12:44.550Z,6.40
2018-12-05T11:15:18.143Z,6.50
2018-12-05T11:19:53.527Z,6.60
2018-12-05T11:22:27.106Z,6.70
2018-12-05T11:24:59.652Z,6.80
2018-12-05T11:27:28.029Z,6.90
2018-12-05T11:29:56.343Z,7.00
2018-12-05T11:32:24.663Z,7.10
2018-12-05T11:34:52.892Z,7.10
2018-12-05T11:37:21.091Z,7.20
2018-12-05T11:39:49.316Z,7.30
2018-12-05T11:42:17.599Z,7.40
2018-12-05T11:44:45.889Z,7.50
2018-12-05T11:47:14.091Z,7.60
2018-12-05T11:49:42.391Z,7.70
2018-12-05T11:52:10.706Z,7.70
2018-12-05T11:54:38.970Z,7.80
2018-12-05T11:57:07.296Z,7.90
2018-12-05T11:59:35.507Z,7.90
2018-12-05T12:02:03.935Z,8.00
2018-12-05T12:04:32.181Z,8.10
2018-12-05T12:07:00.453Z,8.20
2018-12-05T12:09:28.874Z,8.30
2018-12-05T12:11:57.188Z,8.40
2018-12-05T12:14:25.565Z,8.40
2018-12-05T12:16:53.844Z,8.30
2018-12-05T12:19:22.070Z,8.30
2018-12-05T12:21:50.377Z,8.30
2018-12-05T12:24:18.767Z,8.30
2018-12-05T12:26:47.052Z,8.30
2018-12-05T12:29:15.330Z,8.20
2018-12-05T12:31:43.548Z,8.20
2018-12-05T12:34:11.755Z,8.20
2018-12-05T12:36:40.055Z,8.10
2018-12-05T12:39:08.478Z,8.20
2018-12-05T12:41:36.692Z,8.20
2018-12-05T12:44:04.998Z,8.20
2018-12-05T12:46:33.237Z,8.20
2018-12-05T12:49:01.540Z,8.00
2018-12-05T12:51:29.781Z,7.70
2018-12-05T12:53:57.985Z,7.40
2018-12-05T12:56:27.259Z,7.20
2018-12-05T12:58:55.703Z,7.20
2018-12-05T13:01:24.032Z,7.20
2018-12-05T13:03:52.250Z,7.40
2018-12-05T13:06:20.564Z,7.40
2018-12-05T13:08:48.767Z,7.40
2018-12-05T13:11:17.494Z,7.50
2018-12-05T13:13:45.706Z,7.50
2018-12-05T13:16:13.927Z,7.60
2018-12-05T13:18:42.139Z,7.50
2018-12-05T13:21:10.358Z,7.50
2018-12-05T13:23:38.567Z,7.50
2018-12-05T13:26:06.883Z,7.50
2018-12-05T13:28:35.083Z,7.40
2018-12-05T13:31:03.390Z,7.30
2018-12-05T13:33:31.637Z,7.30
2018-12-05T13:35:59.878Z,7.30
2018-12-05T13:38:28.095Z,7.20
2018-12-05T13:40:56.342Z,7.20
2018-12-05T13:43:24.567Z,7.10
2018-12-05T13:45:52.927Z,7.10
2018-12-05T13:48:21.150Z,7.00
2018-12-05T13:50:49.526Z,6.90
2018-12-05T13:53:17.783Z,6.80
2018-12-05T13:55:45.992Z,6.70
2018-12-05T13:58:14.362Z,6.60
2018-12-05T14:00:42.658Z,6.50
2018-12-05T14:03:10.916Z,6.40
2018-12-05T14:05:39.242Z,6.20
2018-12-05T14:08:07.549Z,6.10
2018-12-05T14:10:35.803Z,5.90
2018-12-05T14:13:04.186Z,5.80
2018-12-05T14:15:32.427Z,5.70
2018-12-05T14:18:01.671Z,5.60
2018-12-05T14:20:30.883Z,5.60
2018-12-05T14:22:59.199Z,5.50
2018-12-05T14:25:27.452Z,5.40
2018-12-05T14:27:55.687Z,5.10
2018-12-05T14:30:23.880Z,5.00
2018-12-05T14:32:52.163Z,4.80
2018-12-05T14:35:20.362Z,4.60
2018-12-05T14:37:48.581Z,4.40
2018-12-05T14:40:16.795Z,4.20
2018-12-05T14:42:45.075Z,4.00
2018-12-05T14:45:13.353Z,4.00
2018-12-05T14:47:41.613Z,3.80
2018-12-05T14:50:09.986Z,3.70
2018-12-05T14:52:38.203Z,3.50
2018-12-05T14:55:06.643Z,3.30
2018-12-05T14:57:34.889Z,3.20
2018-12-05T15:00:03.455Z,3.10
2018-12-05T15:02:31.667Z,3.00
2018-12-05T15:04:59.901Z,2.90
2018-12-05T15:07:28.108Z,2.70
2018-12-05T15:09:56.447Z,2.60
2018-12-05T15:12:24.955Z,2.50
2018-12-05T15:14:53.172Z,2.40
2018-12-05T15:17:22.697Z,2.20
2018-12-05T15:19:51.460Z,2.10
2018-12-05T15:22:19.814Z,2.00
2018-12-05T15:24:50.033Z,1.90
2018-12-05T15:27:18.322Z,1.80
2018-12-05T15:29:46.556Z,1.60
2018-12-05T15:32:14.751Z,1.50
2018-12-05T15:34:43.072Z,1.50
2018-12-05T15:37:11.589Z,1.40
2018-12-05T15:39:39.805Z,1.30
2018-12-05T15:42:08.029Z,1.20
2018-12-05T15:44:36.245Z,1.10
2018-12-05T15:47:04.631Z,1.00
2018-12-05T15:49:32.844Z,0.90
2018-12-05T15:52:01.120Z,0.90
2018-12-05T15:54:29.395Z,0.80
2018-12-05T15:56:57.758Z,0.80
2018-12-05T15:59:25.985Z,0.80
2018-12-05T16:01:54.387Z,0.70
2018-12-05T16:04:22.681Z,0.70
2018-12-05T16:06:50.962Z,0.70
2018-12-05T16:09:19.192Z,0.60
2018-12-05T16:11:47.434Z,0.60
2018-12-05T16:14:15.647Z,0.70
2018-12-05T16:16:44.853Z,0.70
2018-12-05T16:19:13.218Z,0.70
2018-12-05T16:21:41.572Z,0.60
2018-12-05T16:24:09.791Z,0.60
2018-12-05T16:26:38.052Z,0.70
2018-12-05T16:29:06.275Z,0.60
2018-12-05T16:31:34.530Z,0.70
2018-12-05T16:34:02.976Z,0.60
2018-12-05T16:36:31.235Z,0.70
2018-12-05T16:38:59.513Z,0.80
2018-12-05T16:41:27.983Z,0.80
2018-12-05T16:43:56.223Z,0.80
2018-12-05T16:46:24.416Z,0.90
2018-12-05T16:48:52.642Z,0.90
2018-12-05T16:51:20.843Z,0.90
2018-12-05T16:53:49.100Z,0.80
2018-12-05T16:56:17.627Z,0.80
2018-12-05T16:58:45.937Z,0.80
2018-12-05T17:01:14.131Z,0.80
2018-12-05T17:03:42.405Z,0.80
2018-12-05T17:06:10.720Z,0.70
2018-12-05T17:08:39.043Z,0.60
2018-12-05T17:11:07.251Z,0.60
2018-12-05T17:13:39.759Z,0.50
2018-12-05T17:16:08.018Z,0.50
2018-12-05T17:18:36.402Z,0.50
2018-12-05T17:21:04.685Z,0.50
2018-12-05T17:23:32.923Z,0.40
2018-12-05T17:26:01.132Z,0.30
2018-12-05T17:28:29.439Z,0.30
2018-12-05T17:30:57.742Z,0.10
2018-12-05T17:33:26.127Z,0.10
2018-12-05T17:35:54.376Z,0.00
2018-12-05T17:38:23.437Z,0.00
2018-12-05T17:40:51.862Z,0.00
2018-12-05T17:43:20.177Z,-0.10
2018-12-05T17:45:48.590Z,-0.20
2018-12-05T17:48:16.846Z,-0.30
2018-12-05T17:50:45.310Z,-0.40
2018-12-05T17:53:13.522Z,-0.50
2018-12-05T17:55:41.825Z,-0.60
2018-12-05T17:58:10.033Z,-0.60
2018-12-05T18:00:38.275Z,-0.70
2018-12-05T18:03:06.586Z,-0.70
2018-12-05T18:05:34.823Z,-0.80
2018-12-05T18:08:03.115Z,-0.80
2018-12-05T18:10:31.377Z,-0.80
2018-12-05T18:12:59.777Z,-0.80
2018-12-05T18:15:28.262Z,-0.80
2018-12-05T18:17:56.515Z,-0.80
2018-12-05T18:20:24.886Z,-0.90
2018-12-05T18:22:53.199Z,-0.90
2018-12-05T18:25:21.413Z,-1.00
2018-12-05T18:27:49.623Z,-1.00
2018-12-05T18:30:17.954Z,-1.00
2018-12-05T18:32:46.211Z,-1.00
2018-12-05T18:35:14.544Z,-0.90
2018-12-05T18:37:42.783Z,-1.00
2018-12-05T18:40:11.085Z,-1.10
2018-12-05T18:42:39.281Z,-1.00
2018-12-05T18:45:08.628Z,-1.00
2018-12-05T18:47:37.139Z,-1.00
2018-12-05T18:50:06.101Z,-1.10
2018-12-05T18:52:34.335Z,-1.00
2018-12-05T18:55:02.747Z,-1.00
2018-12-05T18:57:30.982Z,-1.00
2018-12-05T19:00:01.410Z,-1.00
2018-12-05T19:02:29.550Z,-1.00
2018-12-05T19:04:57.807Z,-1.10
2018-12-05T19:07:26.038Z,-1.10
2018-12-05T19:09:54.253Z,-1.10
2018-12-05T19:12:22.790Z,-1.10
2018-12-05T19:14:51.091Z,-1.10
2018-12-05T19:17:19.949Z,-1.10
2018-12-05T19:19:48.154Z,-1.10
2018-12-05T19:22:16.399Z,-1.10
2018-12-05T19:24:44.599Z,-1.00
2018-12-05T19:27:12.934Z,-1.00
2018-12-05T19:29:41.247Z,-1.00
2018-12-05T19:32:09.592Z,-0.90
2018-12-05T19:34:37.871Z,-0.90
2018-12-05T19:37:06.133Z,-0.80
2018-12-05T19:39:34.454Z,-0.60
2018-12-05T19:42:02.723Z,-0.40
2018-12-05T19:44:31.143Z,-0.40
2018-12-05T19:46:59.383Z,-0.20
2018-12-05T19:49:27.591Z,-0.20
2018-12-05T19:51:56.080Z,-0.10
2018-12-05T19:54:24.441Z,0.00
2018-12-05T19:56:52.858Z,0.10
2018-12-05T19:59:21.199Z,0.20
2018-12-05T20:01:49.827Z,0.20
2018-12-05T20:04:18.336Z,0.30
2018-12-05T20:06:46.833Z,0.30
2018-12-05T20:09:15.139Z,0.30
2018-12-05T20:11:43.440Z,0.30
2018-12-05T20:14:16.111Z,0.30
2018-12-05T20:16:44.431Z,0.30
2018-12-05T20:19:12.827Z,0.40
2018-12-05T20:21:41.029Z,0.40
2018-12-05T20:24:09.259Z,0.40
2018-12-05T20:26:37.466Z,0.50
2018-12-05T20:29:05.838Z,0.50
2018-12-05T20:31:34.825Z,0.60
2018-12-05T20:34:03.045Z,0.50
2018-12-05T20:36:32.476Z,0.50
2018-12-05T20:39:00.738Z,0.50
2018-12-05T20:41:33.121Z,0.60
2018-12-05T20:43:59.252Z,0.60
2018-12-05T20:46:27.529Z,0.60
2018-12-05T20:48:55.745Z,0.70
2018-12-05T20:51:24.041Z,0.70
2018-12-05T20:53:52.355Z,0.80
2018-12-05T20:56:20.656Z,0.80
2018-12-05T20:58:49.257Z,0.80
2018-12-05T21:01:17.453Z,0.90
2018-12-05T21:03:45.770Z,0.90
2018-12-05T21:06:14.302Z,0.90
2018-12-05T21:08:42.627Z,0.90
2018-12-05T21:11:10.978Z,0.90
2018-12-05T21:13:41.363Z,0.90
2018-12-05T21:16:09.578Z,1.00
2018-12-05T21:18:37.911Z,1.10
2018-12-05T21:21:06.404Z,1.20
2018-12-05T21:23:34.614Z,1.30
2018-12-05T21:26:02.854Z,1.40
2018-12-05T21:28:31.061Z,1.40
2018-12-05T21:30:59.307Z,1.50
2018-12-05T21:33:27.887Z,1.50
2018-12-05T21:35:56.139Z,1.60
2018-12-05T21:38:24.579Z,1.60
2018-12-05T21:40:52.809Z,1.70
2018-12-05T21:43:21.328Z,1.70
2018-12-05T21:45:49.600Z,1.70
2018-12-05T21:48:17.819Z,1.70
2018-12-05T21:50:46.059Z,1.70
2018-12-05T21:53:14.695Z,1.70
2018-12-05T21:55:43.244Z,1.80
2018-12-05T21:58:12.567Z,1.90
2018-12-05T22:00:40.901Z,1.90
2018-12-05T22:03:09.103Z,2.00
2018-12-05T22:05:37.489Z,2.00
2018-12-05T22:08:05.837Z,2.00
2018-12-05T22:10:35.408Z,2.10
2018-12-05T22:13:03.728Z,2.10
2018-12-05T22:15:31.963Z,2.20
2018-12-05T22:18:00.191Z,2.20
2018-12-05T22:20:29.766Z,2.20
2018-12-05T22:22:58.316Z,2.20
2018-12-05T22:25:26.607Z,2.30
2018-12-05T22:27:54.825Z,2.20
2018-12-05T22:30:23.114Z,2.20
2018-12-05T22:32:51.711Z,2.30
2018-12-05T22:35:20.014Z,2.20
2018-12-05T22:37:48.346Z,2.30
2018-12-05T22:40:16.670Z,2.30
2018-12-05T22:42:45.160Z,2.30
2018-12-05T22:45:13.487Z,2.30
2018-12-05T22:47:41.721Z,2.30
2018-12-05T22:50:10.050Z,2.30
2018-12-05T22:52:38.253Z,2.30
2018-12-05T22:55:06.583Z,2.30
2018-12-05T22:57:35.390Z,2.30
2018-12-05T23:00:05.181Z,2.20
2018-12-05T23:02:33.379Z,2.30
2018-12-05T23:05:01.734Z,2.20
2018-12-05T23:07:30.000Z,2.20
2018-12-05T23:09:58.346Z,2.20
2018-12-05T23:12:26.620Z,2.20
2018-12-05T23:14:54.911Z,2.20
2018-12-05T23:17:23.227Z,2.30
2018-12-05T23:19:51.555Z,2.30
2018-12-05T23:22:19.843Z,2.30
2018-12-05T23:24:48.087Z,2.30
2018-12-05T23:27:16.302Z,2.30
2018-12-05T23:29:44.568Z,2.30
2018-12-05T23:32:12.848Z,2.30
2018-12-05T23:34:41.177Z,2.30
2018-12-05T23:37:09.502Z,2.30
2018-12-05T23:39:37.839Z,2.40
2018-12-05T23:42:06.651Z,2.40
2018-12-05T23:44:34.923Z,2.50
2018-12-05T23:47:03.172Z,2.50
2018-12-05T23:49:31.375Z,2.40
2018-12-05T23:51:59.614Z,2.40
2018-12-05T23:54:27.821Z,2.50
2018-12-05T23:56:56.089Z,2.40
2018-12-05T23:59:24.285Z,2.50
